createdAt,value
2023-05-09T00:00:10.577Z,7.89
2023-05-09T00:02:57.796Z,7.81
2023-05-09T00:05:25.113Z,7.77
2023-05-09T00:07:52.160Z,7.74
2023-05-09T00:10:19.411Z,7.73
2023-05-09T00:12:46.797Z,7.70
2023-05-09T00:15:13.889Z,7.66
2023-05-09T00:17:41.285Z,7.63
2023-05-09T00:20:11.667Z,7.61
2023-05-09T00:22:42.253Z,7.58
2023-05-09T00:25:10.723Z,7.55
2023-05-09T00:27:37.751Z,7.54
2023-05-09T00:30:06.118Z,7.57
2023-05-09T00:32:33.801Z,7.58
2023-05-09T00:35:00.741Z,7.62
2023-05-09T00:37:30.343Z,7.67
2023-05-09T00:39:57.296Z,7.69
2023-05-09T00:42:24.239Z,7.72
2023-05-09T00:44:51.076Z,7.77
2023-05-09T00:47:18.124Z,7.79
2023-05-09T00:49:45.066Z,7.83
2023-05-09T00:52:12.007Z,7.86
2023-05-09T00:54:39.065Z,7.85
2023-05-09T00:57:06.116Z,7.90
2023-05-09T00:59:33.053Z,7.97
2023-05-09T01:02:00.509Z,8.04
2023-05-09T01:04:27.655Z,8.14
2023-05-09T01:07:06.076Z,8.19
2023-05-09T01:10:13.650Z,8.22
2023-05-09T01:13:05.867Z,8.23
2023-05-09T01:16:01.056Z,8.24
2023-05-09T01:18:34.404Z,8.27
2023-05-09T01:21:16.811Z,8.27
2023-05-09T01:23:43.757Z,8.21
2023-05-09T01:26:52.964Z,8.16
2023-05-09T01:29:31.616Z,8.08
2023-05-09T01:32:02.248Z,8.00
2023-05-09T01:34:32.053Z,7.93
2023-05-09T01:37:01.780Z,7.85
2023-05-09T01:39:31.283Z,7.79
2023-05-09T01:42:02.419Z,7.75
2023-05-09T01:44:37.877Z,7.73
2023-05-09T01:47:07.370Z,7.70
2023-05-09T01:49:37.287Z,7.69
2023-05-09T01:52:08.537Z,7.65
2023-05-09T01:54:36.800Z,7.61
2023-05-09T01:57:05.892Z,7.57
2023-05-09T01:59:34.879Z,7.56
2023-05-09T02:02:03.301Z,7.57
2023-05-09T02:04:31.850Z,7.54
2023-05-09T02:07:00.823Z,7.55
2023-05-09T02:09:27.680Z,7.59
2023-05-09T02:11:54.735Z,7.62
2023-05-09T02:14:21.774Z,7.63
2023-05-09T02:16:49.394Z,7.65
2023-05-09T02:19:17.090Z,7.70
2023-05-09T02:21:44.345Z,7.76
2023-05-09T02:24:11.397Z,7.81
2023-05-09T02:26:40.186Z,7.88
2023-05-09T02:29:08.358Z,7.93
2023-05-09T02:31:36.867Z,7.97
2023-05-09T02:34:05.129Z,8.02
2023-05-09T02:36:32.464Z,8.05
2023-05-09T02:39:00.944Z,8.04
2023-05-09T02:41:30.351Z,8.03
2023-05-09T02:43:57.191Z,8.06
2023-05-09T02:46:24.163Z,8.06
2023-05-09T02:48:51.697Z,8.08
2023-05-09T02:51:18.538Z,8.06
2023-05-09T02:53:45.585Z,8.08
2023-05-09T02:56:12.529Z,8.10
2023-05-09T02:58:39.372Z,8.07
2023-05-09T03:01:06.454Z,8.10
2023-05-09T03:03:34.251Z,8.12
2023-05-09T03:06:03.177Z,8.12
2023-05-09T03:08:30.633Z,8.13
2023-05-09T03:10:57.573Z,8.14
2023-05-09T03:13:24.667Z,8.11
2023-05-09T03:15:51.788Z,8.08
2023-05-09T03:18:18.611Z,8.06
2023-05-09T03:20:45.773Z,8.07
2023-05-09T03:23:12.816Z,8.06
2023-05-09T03:25:39.865Z,8.04
2023-05-09T03:28:06.805Z,7.99
2023-05-09T03:30:33.648Z,7.92
2023-05-09T03:33:01.380Z,7.87
2023-05-09T03:35:28.461Z,7.80
2023-05-09T03:37:55.709Z,7.74
2023-05-09T03:40:22.552Z,7.69
2023-05-09T03:42:54.103Z,7.66
2023-05-09T03:45:21.479Z,7.64
2023-05-09T03:47:48.850Z,7.65
2023-05-09T03:50:16.063Z,7.67
2023-05-09T03:52:43.625Z,7.69
2023-05-09T03:55:11.724Z,7.71
2023-05-09T03:57:39.150Z,7.75
2023-05-09T04:00:12.651Z,7.82
2023-05-09T04:02:49.393Z,7.89
2023-05-09T04:05:22.412Z,7.95
2023-05-09T04:07:49.573Z,8.03
2023-05-09T04:10:16.713Z,8.12
2023-05-09T04:12:43.806Z,8.19
2023-05-09T04:15:11.829Z,8.26
2023-05-09T04:17:39.708Z,8.34
2023-05-09T04:20:07.871Z,8.41
2023-05-09T04:22:34.716Z,8.47
2023-05-09T04:25:03.699Z,8.51
2023-05-09T04:27:31.473Z,8.58
2023-05-09T04:29:58.726Z,8.67
2023-05-09T04:32:26.810Z,8.76
2023-05-09T04:34:54.458Z,8.87
2023-05-09T04:37:22.936Z,9.00
2023-05-09T04:39:51.106Z,9.09
2023-05-09T04:42:22.458Z,9.14
2023-05-09T04:44:49.526Z,9.18
2023-05-09T04:47:16.656Z,9.27
2023-05-09T04:49:43.492Z,9.32
2023-05-09T04:52:10.336Z,9.27
2023-05-09T04:54:37.493Z,9.30
2023-05-09T04:57:16.580Z,9.31
2023-05-09T04:59:45.833Z,9.36
2023-05-09T05:02:13.477Z,9.31
2023-05-09T05:04:41.471Z,9.36
2023-05-09T05:07:09.007Z,9.42
2023-05-09T05:09:36.256Z,9.42
2023-05-09T05:12:08.392Z,9.46
2023-05-09T05:14:37.010Z,9.48
2023-05-09T05:17:04.888Z,9.42
2023-05-09T05:19:32.328Z,9.43
2023-05-09T05:21:59.474Z,9.45
2023-05-09T05:24:26.727Z,9.44
2023-05-09T05:26:53.781Z,9.42
2023-05-09T05:29:20.824Z,9.37
2023-05-09T05:31:47.688Z,9.38
2023-05-09T05:34:16.248Z,9.49
2023-05-09T05:36:43.907Z,9.62
2023-05-09T05:39:11.057Z,9.75
2023-05-09T05:41:38.004Z,9.78
2023-05-09T05:44:05.763Z,9.70
2023-05-09T05:46:33.686Z,9.75
2023-05-09T05:49:01.629Z,9.76
2023-05-09T05:51:28.750Z,9.88
2023-05-09T05:53:55.900Z,9.98
2023-05-09T05:56:23.558Z,10.09
2023-05-09T05:58:50.503Z,10.13
2023-05-09T06:01:17.971Z,10.13
2023-05-09T06:03:45.070Z,10.23
2023-05-09T06:06:12.152Z,10.19
2023-05-09T06:08:39.103Z,10.20
2023-05-09T06:11:06.165Z,10.25
2023-05-09T06:13:33.302Z,10.09
2023-05-09T06:16:14.993Z,10.08
2023-05-09T06:18:45.413Z,10.21
2023-05-09T06:21:12.399Z,10.10
2023-05-09T06:23:47.321Z,10.23
2023-05-09T06:26:24.473Z,10.35
2023-05-09T06:28:51.314Z,10.41
2023-05-09T06:31:18.167Z,10.50
2023-05-09T06:33:45.004Z,10.57
2023-05-09T06:36:11.947Z,10.55
2023-05-09T06:38:38.789Z,10.62
2023-05-09T06:41:05.640Z,10.82
2023-05-09T06:43:32.576Z,10.90
2023-05-09T06:45:59.844Z,10.95
2023-05-09T06:48:26.780Z,11.15
2023-05-09T06:50:54.136Z,11.32
2023-05-09T06:53:21.379Z,11.30
2023-05-09T06:55:48.236Z,11.35
2023-05-09T06:58:15.268Z,11.21
2023-05-09T07:00:42.111Z,11.38
2023-05-09T07:03:10.157Z,11.55
2023-05-09T07:05:37.130Z,11.63
2023-05-09T07:08:04.694Z,11.58
2023-05-09T07:10:31.956Z,11.55
2023-05-09T07:12:58.917Z,11.46
2023-05-09T07:15:39.810Z,11.00
2023-05-09T07:18:09.199Z,10.89
2023-05-09T07:20:36.497Z,10.80
2023-05-09T07:23:05.522Z,10.71
2023-05-09T07:25:32.552Z,10.09
2023-05-09T07:27:59.294Z,10.15
2023-05-09T07:30:26.155Z,10.07
2023-05-09T07:32:53.117Z,10.23
2023-05-09T07:35:20.544Z,9.87
2023-05-09T07:37:47.382Z,9.88
2023-05-09T07:40:14.909Z,9.64
2023-05-09T07:42:48.993Z,9.46
2023-05-09T07:45:16.617Z,9.37
2023-05-09T07:47:44.204Z,9.41
2023-05-09T07:50:11.338Z,9.34
2023-05-09T07:52:38.463Z,9.25
2023-05-09T07:55:06.268Z,9.20
2023-05-09T07:57:33.375Z,9.22
2023-05-09T08:00:00.434Z,9.09
2023-05-09T08:02:27.430Z,9.01
2023-05-09T08:04:54.433Z,9.14
2023-05-09T08:07:21.253Z,9.09
2023-05-09T08:09:48.202Z,9.14
2023-05-09T08:12:15.061Z,9.25
2023-05-09T08:14:41.886Z,9.23
2023-05-09T08:17:08.845Z,9.37
2023-05-09T08:19:35.667Z,9.53
2023-05-09T08:22:02.723Z,9.67
2023-05-09T08:24:30.178Z,9.72
2023-05-09T08:26:57.121Z,9.67
2023-05-09T08:29:23.968Z,9.69
2023-05-09T08:31:51.138Z,9.67
2023-05-09T08:34:18.280Z,9.67
2023-05-09T08:36:46.546Z,9.70
2023-05-09T08:39:13.691Z,9.69
2023-05-09T08:41:42.177Z,9.63
2023-05-09T08:44:09.535Z,9.62
2023-05-09T08:46:39.262Z,9.67
2023-05-09T08:49:07.786Z,9.74
2023-05-09T08:51:38.460Z,9.84
2023-05-09T08:54:05.833Z,9.93
2023-05-09T08:56:35.415Z,10.14
2023-05-09T08:59:05.230Z,10.38
2023-05-09T09:01:33.857Z,10.65
2023-05-09T09:04:02.190Z,10.91
2023-05-09T09:06:30.261Z,11.11
2023-05-09T09:08:58.937Z,11.34
2023-05-09T09:11:28.289Z,11.61
2023-05-09T09:14:00.512Z,11.75
2023-05-09T09:16:28.899Z,11.94
2023-05-09T09:18:58.708Z,12.21
2023-05-09T09:21:27.077Z,12.43
2023-05-09T09:23:56.279Z,12.48
2023-05-09T09:26:24.347Z,12.53
2023-05-09T09:28:51.594Z,12.55
2023-05-09T09:31:27.099Z,12.09
2023-05-09T09:34:02.071Z,11.85
2023-05-09T09:36:31.937Z,11.43
2023-05-09T09:39:01.152Z,11.74
2023-05-09T09:41:35.096Z,11.46
2023-05-09T09:44:08.927Z,11.55
2023-05-09T09:46:55.944Z,11.75
2023-05-09T09:49:25.110Z,11.74
2023-05-09T09:51:51.968Z,11.44
2023-05-09T09:54:19.111Z,11.15
2023-05-09T09:56:53.009Z,11.54
2023-05-09T09:59:25.280Z,11.63
2023-05-09T10:02:13.027Z,11.99
2023-05-09T10:04:43.549Z,11.84
2023-05-09T10:07:12.771Z,12.00
2023-05-09T10:09:40.715Z,11.97
2023-05-09T10:12:08.838Z,11.70
2023-05-09T10:14:38.152Z,11.44
2023-05-09T10:17:05.636Z,11.66
2023-05-09T10:19:35.593Z,11.61
2023-05-09T10:22:05.730Z,11.68
2023-05-09T10:24:43.482Z,11.78
2023-05-09T10:27:11.663Z,11.97
2023-05-09T10:29:44.635Z,11.77
2023-05-09T10:32:13.728Z,11.71
2023-05-09T10:34:44.025Z,11.56
2023-05-09T10:37:12.220Z,11.86
2023-05-09T10:39:40.191Z,11.91
2023-05-09T10:42:08.156Z,11.75
2023-05-09T10:44:35.612Z,11.74
2023-05-09T10:47:03.081Z,11.82
2023-05-09T10:49:31.449Z,11.89
2023-05-09T10:51:58.389Z,11.92
2023-05-09T10:54:31.831Z,11.93
2023-05-09T10:57:00.372Z,12.01
2023-05-09T10:59:43.397Z,12.02
2023-05-09T11:02:15.465Z,12.08
2023-05-09T11:04:43.838Z,12.20
2023-05-09T11:07:25.449Z,12.36
2023-05-09T11:10:19.511Z,12.54
2023-05-09T11:12:58.342Z,12.68
2023-05-09T11:15:27.227Z,12.89
2023-05-09T11:18:09.289Z,13.01
2023-05-09T11:20:43.291Z,13.18
2023-05-09T11:23:11.980Z,13.35
2023-05-09T11:25:39.368Z,13.44
2023-05-09T11:28:06.214Z,13.52
2023-05-09T11:30:40.596Z,13.53
2023-05-09T11:33:22.666Z,13.26
2023-05-09T11:36:19.069Z,13.03
2023-05-09T11:38:47.445Z,13.34
2023-05-09T11:41:15.112Z,13.30
2023-05-09T11:43:44.073Z,13.10
2023-05-09T11:46:12.295Z,13.10
2023-05-09T11:48:41.709Z,13.00
2023-05-09T11:51:17.130Z,12.92
2023-05-09T11:53:49.488Z,12.80
2023-05-09T11:56:17.258Z,12.77
2023-05-09T11:58:46.350Z,12.76
2023-05-09T12:01:13.407Z,12.62
2023-05-09T12:03:44.930Z,12.65
2023-05-09T12:06:17.833Z,12.69
2023-05-09T12:08:45.905Z,12.75
2023-05-09T12:11:14.587Z,12.81
2023-05-09T12:13:49.307Z,12.82
2023-05-09T12:16:17.774Z,12.92
2023-05-09T12:18:49.804Z,12.91
2023-05-09T12:21:21.208Z,12.88
2023-05-09T12:23:50.988Z,12.84
2023-05-09T12:26:19.292Z,12.81
2023-05-09T12:28:47.265Z,12.87
2023-05-09T12:31:14.425Z,12.92
2023-05-09T12:33:41.672Z,12.91
2023-05-09T12:36:11.252Z,12.95
2023-05-09T12:38:39.074Z,12.96
2023-05-09T12:41:22.425Z,13.06
2023-05-09T12:43:58.365Z,13.16
2023-05-09T12:46:25.509Z,13.18
2023-05-09T12:48:52.417Z,13.18
2023-05-09T12:51:21.329Z,13.20
2023-05-09T12:53:48.477Z,13.22
2023-05-09T12:56:18.160Z,13.20
2023-05-09T12:58:55.366Z,13.17
2023-05-09T13:01:27.311Z,13.15
2023-05-09T13:04:06.053Z,13.07
2023-05-09T13:06:35.228Z,12.97
2023-05-09T13:09:08.690Z,12.93
2023-05-09T13:11:37.313Z,12.83
2023-05-09T13:14:04.375Z,12.82
2023-05-09T13:16:31.335Z,12.80
2023-05-09T13:18:58.143Z,12.81
2023-05-09T13:21:25.107Z,12.79
2023-05-09T13:23:52.211Z,12.79
2023-05-09T13:26:19.515Z,12.78
2023-05-09T13:28:46.442Z,12.81
2023-05-09T13:31:13.616Z,12.86
2023-05-09T13:33:40.637Z,12.90
2023-05-09T13:36:07.680Z,12.91
2023-05-09T13:38:40.052Z,12.81
2023-05-09T13:41:07.100Z,12.78
2023-05-09T13:43:34.772Z,12.76
2023-05-09T13:46:02.867Z,12.68
2023-05-09T13:48:29.785Z,12.68
2023-05-09T13:50:59.075Z,12.66
2023-05-09T13:53:26.125Z,12.54
2023-05-09T13:55:52.962Z,12.45
2023-05-09T13:58:20.019Z,12.34
2023-05-09T14:00:46.858Z,12.34
2023-05-09T14:03:13.730Z,12.35
2023-05-09T14:05:41.980Z,12.36
2023-05-09T14:08:09.026Z,12.35
2023-05-09T14:10:35.862Z,12.36
2023-05-09T14:13:02.822Z,12.35
2023-05-09T14:15:29.760Z,12.36
2023-05-09T14:17:56.667Z,12.36
2023-05-09T14:20:23.741Z,12.38
2023-05-09T14:22:51.404Z,12.41
2023-05-09T14:25:18.473Z,12.43
2023-05-09T14:27:45.294Z,12.45
2023-05-09T14:30:12.990Z,12.48
2023-05-09T14:32:40.414Z,12.51
2023-05-09T14:35:08.013Z,12.52
2023-05-09T14:37:35.445Z,12.53
2023-05-09T14:40:05.149Z,12.57
2023-05-09T14:42:32.513Z,12.61
2023-05-09T14:44:59.554Z,12.62
2023-05-09T14:47:26.511Z,12.62
2023-05-09T14:49:53.433Z,12.59
2023-05-09T14:52:20.474Z,12.53
2023-05-09T14:54:47.436Z,12.49
2023-05-09T14:57:14.370Z,12.43
2023-05-09T14:59:41.825Z,12.38
2023-05-09T15:02:08.882Z,12.35
2023-05-09T15:04:35.857Z,12.34
2023-05-09T15:07:02.773Z,12.35
2023-05-09T15:09:29.607Z,12.34
2023-05-09T15:11:56.546Z,12.34
2023-05-09T15:14:23.492Z,12.36
2023-05-09T15:16:51.887Z,12.39
2023-05-09T15:19:19.226Z,12.38
2023-05-09T15:21:46.075Z,12.37
2023-05-09T15:24:13.033Z,12.36
2023-05-09T15:26:42.722Z,12.33
2023-05-09T15:29:10.076Z,12.33
2023-05-09T15:31:37.069Z,12.31
2023-05-09T15:34:04.371Z,12.32
2023-05-09T15:36:33.351Z,12.30
2023-05-09T15:39:00.312Z,12.26
2023-05-09T15:41:28.185Z,12.22
2023-05-09T15:43:55.131Z,12.19
2023-05-09T15:46:22.110Z,12.17
2023-05-09T15:48:49.150Z,12.13
2023-05-09T15:51:16.055Z,12.08
2023-05-09T15:53:43.001Z,12.04
2023-05-09T15:56:10.152Z,11.99
2023-05-09T15:58:37.203Z,11.95
2023-05-09T16:01:05.775Z,11.88
2023-05-09T16:03:33.351Z,11.85
2023-05-09T16:06:01.024Z,11.80
2023-05-09T16:08:27.945Z,11.76
2023-05-09T16:10:55.415Z,11.72
2023-05-09T16:13:22.281Z,11.69
2023-05-09T16:15:50.451Z,11.65
2023-05-09T16:18:17.573Z,11.60
2023-05-09T16:20:44.423Z,11.53
2023-05-09T16:23:11.405Z,11.49
2023-05-09T16:25:38.315Z,11.46
2023-05-09T16:28:06.679Z,11.42
2023-05-09T16:30:33.931Z,11.36
2023-05-09T16:33:00.807Z,11.30
2023-05-09T16:35:28.027Z,11.23
2023-05-09T16:37:54.970Z,11.16
2023-05-09T16:40:21.922Z,11.09
2023-05-09T16:42:49.070Z,11.06
2023-05-09T16:45:15.904Z,11.02
2023-05-09T16:47:42.777Z,10.99
2023-05-09T16:50:10.325Z,10.98
2023-05-09T16:52:37.355Z,10.97
2023-05-09T16:55:05.216Z,10.95
2023-05-09T16:57:32.060Z,10.94
2023-05-09T16:59:58.908Z,10.92
2023-05-09T17:02:25.780Z,10.97
2023-05-09T17:04:52.772Z,11.00
2023-05-09T17:07:19.741Z,11.01
2023-05-09T17:09:48.135Z,10.99
2023-05-09T17:12:17.622Z,10.99
2023-05-09T17:14:45.281Z,11.00
2023-05-09T17:17:14.149Z,11.01
2023-05-09T17:19:41.136Z,11.01
2023-05-09T17:22:08.475Z,11.00
2023-05-09T17:24:35.417Z,10.98
2023-05-09T17:27:03.185Z,10.95
2023-05-09T17:29:30.679Z,10.88
2023-05-09T17:32:01.588Z,10.81
2023-05-09T17:34:29.146Z,10.73
2023-05-09T17:36:56.655Z,10.67
2023-05-09T17:39:24.773Z,10.61
2023-05-09T17:41:51.712Z,10.51
2023-05-09T17:44:18.875Z,10.40
2023-05-09T17:46:47.656Z,10.30
2023-05-09T17:49:15.005Z,10.22
2023-05-09T17:51:42.255Z,10.15
2023-05-09T17:54:10.443Z,10.08
2023-05-09T17:56:37.270Z,10.00
2023-05-09T17:59:04.112Z,9.93
2023-05-09T18:01:30.992Z,9.88
2023-05-09T18:03:57.969Z,9.81
2023-05-09T18:06:25.882Z,9.77
2023-05-09T18:08:52.712Z,9.72
2023-05-09T18:11:20.268Z,9.68
2023-05-09T18:13:47.706Z,9.64
2023-05-09T18:16:14.606Z,9.59
2023-05-09T18:18:41.521Z,9.55
2023-05-09T18:21:09.173Z,9.52
2023-05-09T18:23:36.425Z,9.50
2023-05-09T18:26:03.981Z,9.49
2023-05-09T18:28:38.654Z,9.49
2023-05-09T18:31:08.935Z,9.47
2023-05-09T18:33:37.825Z,9.47
2023-05-09T18:36:08.409Z,9.47
2023-05-09T18:38:37.900Z,9.44
2023-05-09T18:41:10.062Z,9.43
2023-05-09T18:43:41.577Z,9.42
2023-05-09T18:46:08.530Z,9.44
2023-05-09T18:48:35.473Z,9.44
2023-05-09T18:51:02.409Z,9.42
2023-05-09T18:53:29.509Z,9.40
2023-05-09T18:55:56.406Z,9.38
2023-05-09T18:58:24.266Z,9.33
2023-05-09T19:00:52.499Z,9.24
2023-05-09T19:03:20.427Z,9.17
2023-05-09T19:05:47.473Z,9.14
2023-05-09T19:08:14.559Z,9.11
2023-05-09T19:10:42.171Z,9.07
2023-05-09T19:13:09.302Z,9.07
2023-05-09T19:15:36.472Z,9.03
2023-05-09T19:18:03.771Z,8.96
2023-05-09T19:20:31.087Z,8.95
2023-05-09T19:22:58.822Z,8.93
2023-05-09T19:25:26.086Z,8.92
2023-05-09T19:27:53.025Z,8.90
2023-05-09T19:30:20.491Z,8.89
2023-05-09T19:32:47.339Z,8.87
2023-05-09T19:35:14.369Z,8.87
2023-05-09T19:37:41.429Z,8.86
2023-05-09T19:40:09.092Z,8.85
2023-05-09T19:42:37.354Z,8.84
2023-05-09T19:45:04.812Z,8.82
2023-05-09T19:47:31.692Z,8.79
2023-05-09T19:49:58.803Z,8.76
2023-05-09T19:52:25.646Z,8.74
2023-05-09T19:54:52.402Z,8.72
2023-05-09T19:57:20.046Z,8.72
2023-05-09T19:59:46.895Z,8.72
2023-05-09T20:02:13.836Z,8.74
2023-05-09T20:04:46.106Z,8.75
2023-05-09T20:07:13.047Z,8.76
2023-05-09T20:09:41.732Z,8.76
2023-05-09T20:12:09.521Z,8.75
2023-05-09T20:14:36.509Z,8.75
2023-05-09T20:17:04.822Z,8.73
2023-05-09T20:19:32.806Z,8.72
2023-05-09T20:22:01.348Z,8.71
2023-05-09T20:24:28.317Z,8.68
2023-05-09T20:26:55.267Z,8.67
2023-05-09T20:29:23.943Z,8.69
2023-05-09T20:31:51.008Z,8.70
2023-05-09T20:34:19.270Z,8.69
2023-05-09T20:36:50.153Z,8.66
2023-05-09T20:39:17.985Z,8.69
2023-05-09T20:41:45.609Z,8.69
2023-05-09T20:44:13.832Z,8.68
2023-05-09T20:46:41.261Z,8.64
2023-05-09T20:49:09.028Z,8.60
2023-05-09T20:51:36.177Z,8.58
2023-05-09T20:54:03.797Z,8.59
2023-05-09T20:56:30.578Z,8.56
2023-05-09T20:59:03.165Z,8.54
2023-05-09T21:01:31.968Z,8.51
2023-05-09T21:03:58.907Z,8.52
2023-05-09T21:06:25.833Z,8.54
2023-05-09T21:08:52.773Z,8.55
2023-05-09T21:11:19.723Z,8.54
2023-05-09T21:13:46.871Z,8.53
2023-05-09T21:16:13.715Z,8.52
2023-05-09T21:18:40.558Z,8.50
2023-05-09T21:21:07.804Z,8.49
2023-05-09T21:23:35.092Z,8.50
2023-05-09T21:26:02.004Z,8.50
2023-05-09T21:28:28.942Z,8.52
2023-05-09T21:30:55.955Z,8.51
2023-05-09T21:33:22.830Z,8.52
2023-05-09T21:35:49.789Z,8.48
2023-05-09T21:38:16.620Z,8.42
2023-05-09T21:40:43.358Z,8.39
2023-05-09T21:43:12.993Z,8.37
2023-05-09T21:45:39.809Z,8.35
2023-05-09T21:48:06.655Z,8.30
2023-05-09T21:50:33.503Z,8.22
2023-05-09T21:53:01.054Z,8.19
2023-05-09T21:55:27.897Z,8.17
2023-05-09T21:57:54.838Z,8.12
2023-05-09T22:00:22.298Z,8.06
2023-05-09T22:02:50.034Z,7.99
2023-05-09T22:05:17.528Z,7.91
2023-05-09T22:07:44.367Z,7.83
2023-05-09T22:10:11.810Z,7.76
2023-05-09T22:12:38.657Z,7.71
2023-05-09T22:15:06.433Z,7.65
2023-05-09T22:17:33.609Z,7.60
2023-05-09T22:20:00.822Z,7.57
2023-05-09T22:22:27.779Z,7.54
2023-05-09T22:24:56.039Z,7.52
2023-05-09T22:27:22.892Z,7.50
2023-05-09T22:29:50.037Z,7.50
2023-05-09T22:32:17.397Z,7.48
2023-05-09T22:34:47.582Z,7.48
2023-05-09T22:37:14.763Z,7.46
2023-05-09T22:39:43.651Z,7.41
2023-05-09T22:42:10.798Z,7.45
2023-05-09T22:44:38.458Z,7.52
2023-05-09T22:47:09.193Z,7.54
2023-05-09T22:49:36.037Z,7.56
2023-05-09T22:52:03.200Z,7.55
2023-05-09T22:54:30.128Z,7.51
2023-05-09T22:56:57.072Z,7.50
2023-05-09T22:59:23.917Z,7.52
2023-05-09T23:01:51.374Z,7.57
2023-05-09T23:04:18.529Z,7.64
2023-05-09T23:06:45.365Z,7.67
2023-05-09T23:09:12.314Z,7.67
2023-05-09T23:11:39.056Z,7.64
2023-05-09T23:14:06.304Z,7.60
2023-05-09T23:16:33.147Z,7.58
2023-05-09T23:19:00.191Z,7.55
2023-05-09T23:21:26.942Z,7.50
2023-05-09T23:23:53.777Z,7.51
2023-05-09T23:26:21.333Z,7.53
2023-05-09T23:28:48.176Z,7.54
2023-05-09T23:31:15.128Z,7.55
2023-05-09T23:33:42.068Z,7.55
2023-05-09T23:36:09.310Z,7.54
2023-05-09T23:38:36.055Z,7.50
2023-05-09T23:41:03.004Z,7.46
2023-05-09T23:43:29.842Z,7.48
2023-05-09T23:45:56.784Z,7.51
2023-05-09T23:48:23.734Z,7.52
2023-05-09T23:50:51.287Z,7.52
2023-05-09T23:53:19.464Z,7.50
2023-05-09T23:55:46.308Z,7.48
2023-05-09T23:58:13.561Z,7.44
